Terminal Aerodrome Forecast
Issued by NWS St Louis, MO

Home | Current Version | Previous Version | Text Only | Print | Product List | Glossary On
Versions: 1 2 3 4 5 6 7 8 9 10 11 12 13 14 15 16 17 18 19 20 21 22 23 24 25
000
FTUS43 KLSX 261151 AAA
TAFSTL
TAF AMD
KSTL 261151Z 2612/2718 20010KT 5SM -TSRA BKN050CB
      TEMPO 2612/2614 VRB40KT 1SM +TSRA BKN035CB
     FM261500 21010KT P6SM SCT050 BKN100
     FM261800 18009KT P6SM SCT040 BKN250
     FM270800 19006KT P6SM -SHRA BKN040=

USA.gov is the U.S. government's official web portal to all federal, state and local government web resources and services.